Time;durP1;ratioP1;P1;durP2;ratioP2;P2;SDS_P1;SDS_P2;PMS_P1;PMS_P2;Temp;Humidity;BMP_temperature;BMP_pressure;BME280_temperature;BME280_humidity;BME280_pressure;Samples;Min_cycle;Max_cycle;Signal;HPM_P1;HPM_P2
2023/01/13 00:00:08;;;;;;;8.57;6.40;;;;;;;7.75;100.00;98518.94;5053085;28;20198;-60
2023/01/13 00:02:33;;;;;;;8.35;6.20;;;;;;;7.67;100.00;98502.25;5053523;28;20280;-60
2023/01/13 00:04:58;;;;;;;7.57;5.80;;;;;;;7.83;100.00;98527.09;5053327;28;20620;-60
2023/01/13 00:07:24;;;;;;;7.45;6.00;;;;;;;7.46;100.00;98475.16;5053531;28;20666;-61
2023/01/13 00:09:49;;;;;;;8.18;5.45;;;;;;;7.44;100.00;98477.81;5052971;28;20631;-60
2023/01/13 00:12:15;;;;;;;7.22;5.00;;;;;;;7.74;100.00;98522.44;5052923;28;20261;-60
2023/01/13 00:14:40;;;;;;;5.55;4.93;;;;;;;7.72;100.00;98528.59;5052859;28;20257;-61
2023/01/13 00:17:06;;;;;;;6.30;4.90;;;;;;;7.42;100.00;98474.50;5052534;28;20546;-61
2023/01/13 00:19:31;;;;;;;6.85;5.05;;;;;;;7.28;100.00;98471.81;5052795;28;20241;-60
2023/01/13 00:21:57;;;;;;;10.75;5.18;;;;;;;7.21;100.00;98470.50;5053135;28;20235;-60
2023/01/13 00:24:22;;;;;;;7.72;5.38;;;;;;;7.67;100.00;98536.59;5053552;28;20690;-60
2023/01/13 00:26:47;;;;;;;12.40;5.90;;;;;;;7.24;100.00;98465.19;5052721;28;20623;-60
2023/01/13 00:29:13;;;;;;;5.75;5.00;;;;;;;7.63;100.00;98523.97;5052995;28;20178;-60
2023/01/13 00:31:38;;;;;;;5.93;4.80;;;;;;;7.42;100.00;98484.78;5052866;28;20207;-60
2023/01/13 00:34:04;;;;;;;6.85;5.00;;;;;;;7.42;100.00;98476.22;5052636;28;20177;-60
2023/01/13 00:36:29;;;;;;;7.03;5.38;;;;;;;7.74;100.00;98531.94;5052580;28;20192;-60
2023/01/13 00:38:55;;;;;;;6.50;5.75;;;;;;;7.52;100.00;98511.66;5052482;28;20181;-60
2023/01/13 00:41:23;;;;;;;8.35;5.68;;;;;;;7.63;100.00;98516.25;5052730;28;20660;-60
2023/01/13 00:43:48;;;;;;;6.90;5.45;;;;;;;7.37;100.00;98476.47;5053241;28;20173;-60
2023/01/13 00:46:17;;;;;;;8.25;5.55;;;;;;;7.41;100.00;98485.66;5052721;28;20165;-60
2023/01/13 00:48:42;;;;;;;6.50;5.10;;;;;;;7.36;100.00;98495.41;5051834;28;20565;-60
2023/01/13 00:51:13;;;;;;;5.22;4.40;;;;;;;7.62;100.00;98535.16;5052706;28;20174;-61
2023/01/13 00:53:42;;;;;;;5.68;4.65;;;;;;;7.34;100.00;98476.63;5052321;28;20189;-60
2023/01/13 00:56:13;;;;;;;6.38;4.93;;;;;;;7.35;100.00;98472.31;5052332;28;20182;-60
2023/01/13 00:58:39;;;;;;;6.85;5.43;;;;;;;7.59;100.00;98528.47;5053129;28;20578;-60
2023/01/13 01:01:07;;;;;;;7.88;5.05;;;;;;;7.53;100.00;98522.81;5052251;28;20197;-61
2023/01/13 01:03:34;;;;;;;10.55;4.90;;;;;;;7.21;100.00;98465.34;5052805;28;20651;-61
2023/01/13 01:06:05;;;;;;;5.35;4.85;;;;;;;7.30;100.00;98477.72;5051922;28;20178;-61
2023/01/13 01:08:31;;;;;;;6.40;5.07;;;;;;;7.30;100.00;98464.88;5052468;28;20527;-62
2023/01/13 01:11:02;;;;;;;6.25;5.38;;;;;;;7.66;100.00;98521.22;5052449;28;20177;-61
2023/01/13 01:13:27;;;;;;;5.75;4.90;;;;;;;7.46;100.00;98504.28;5052142;28;20216;-61
2023/01/13 01:15:52;;;;;;;5.25;4.75;;;;;;;7.46;100.00;98518.91;5052113;28;20574;-61
2023/01/13 01:18:18;;;;;;;5.25;4.78;;;;;;;7.16;100.00;98464.75;5052130;28;20265;-61
2023/01/13 01:20:43;;;;;;;6.97;4.57;;;;;;;7.18;100.00;98465.50;5052022;28;20554;-61
2023/01/13 01:23:09;;;;;;;5.63;4.40;;;;;;;6.91;100.00;98419.88;5052130;28;20269;-61
2023/01/13 01:25:34;;;;;;;5.88;5.28;;;;;;;7.47;100.00;98513.66;5052074;28;20519;-61
2023/01/13 01:27:59;;;;;;;6.25;5.47;;;;;;;7.03;100.00;98442.34;5052578;28;20227;-61
2023/01/13 01:30:25;;;;;;;7.57;5.28;;;;;;;7.04;100.00;98450.00;5052015;28;20231;-61
2023/01/13 01:32:50;;;;;;;8.98;5.03;;;;;;;7.20;100.00;98468.00;5052111;28;20194;-61
2023/01/13 01:35:16;;;;;;;6.95;5.00;;;;;;;7.22;100.00;98449.00;5052480;28;20176;-61
2023/01/13 01:37:41;;;;;;;9.55;5.80;;;;;;;7.31;100.00;98455.38;5052262;28;20174;-61
2023/01/13 01:40:08;;;;;;;7.32;5.07;;;;;;;7.35;100.00;98457.69;5051839;28;20219;-61
2023/01/13 01:45:19;;;;;;;8.63;5.72;;;;;;;7.27;100.00;98459.03;5052493;28;20161;-61
2023/01/13 01:47:48;;;;;;;7.90;5.97;;;;;;;7.27;100.00;98470.16;5051867;28;20190;-61
2023/01/13 01:50:15;;;;;;;7.53;6.03;;;;;;;7.00;100.00;98419.38;5051806;28;20177;-61
2023/01/13 01:52:45;;;;;;;12.65;6.53;;;;;;;7.35;100.00;98467.19;5051519;28;20636;-61
2023/01/13 01:55:34;;;;;;;9.20;6.25;;;;;;;7.55;100.00;98506.38;5052027;28;20178;-61
2023/01/13 01:58:27;;;;;;;6.68;6.03;;;;;;;7.39;100.00;98477.22;5052592;28;20166;-61
2023/01/13 02:00:53;;;;;;;9.50;6.00;;;;;;;7.22;100.00;98451.56;5053902;28;20201;-61
2023/01/13 02:03:19;;;;;;;6.88;5.47;;;;;;;7.51;100.00;98522.88;5055364;28;20174;-61
2023/01/13 02:05:44;;;;;;;7.47;5.55;;;;;;;7.46;100.00;98509.41;5055646;28;20232;-61
2023/01/13 02:08:12;;;;;;;9.32;6.38;;;;;;;7.17;100.00;98452.75;5055005;28;20174;-61
2023/01/13 02:10:40;;;;;;;7.97;5.68;;;;;;;7.21;100.00;98462.78;5055356;28;20166;-61
2023/01/13 02:13:09;;;;;;;8.13;6.18;;;;;;;7.46;100.00;98491.41;5055175;28;20177;-61
2023/01/13 02:15:37;;;;;;;7.18;5.47;;;;;;;7.49;100.00;98490.41;5055436;28;20256;-61
2023/01/13 02:18:11;;;;;;;9.30;6.43;;;;;;;7.57;100.00;98522.53;5054817;28;20174;-61
2023/01/13 02:20:51;;;;;;;9.48;5.55;;;;;;;7.66;100.00;98514.31;5054732;28;20251;-61
2023/01/13 02:26:18;;;;;;;13.93;6.60;;;;;;;7.53;100.00;98518.50;5055040;28;20192;-61
2023/01/13 02:32:04;;;;;;;11.25;6.88;;;;;;;7.50;100.00;98508.34;5055150;28;20254;-60
2023/01/13 02:34:39;;;;;;;10.10;7.40;;;;;;;7.62;100.00;98522.28;5055385;28;20197;-61
2023/01/13 02:37:15;;;;;;;9.88;7.15;;;;;;;7.49;100.00;98529.88;5054823;28;20169;-61
2023/01/13 02:39:51;;;;;;;8.95;6.43;;;;;;;7.32;100.00;98493.91;5055257;28;20239;-61
2023/01/13 02:45:25;;;;;;;9.93;6.75;;;;;;;7.04;100.00;98462.84;5054659;28;20211;-61
2023/01/13 02:47:54;;;;;;;6.88;5.43;;;;;;;7.39;100.00;98520.16;5054890;28;20174;-61
2023/01/13 02:50:26;;;;;;;9.30;6.63;;;;;;;7.17;100.00;98499.88;5054814;28;20239;-61
2023/01/13 02:52:57;;;;;;;9.32;6.28;;;;;;;7.07;100.00;98478.13;5055055;28;20177;-61
2023/01/13 02:55:27;;;;;;;9.25;6.40;;;;;;;7.37;100.00;98516.81;5055005;28;20583;-61
2023/01/13 02:57:57;;;;;;;11.32;7.38;;;;;;;7.46;100.00;98526.63;5054696;28;20158;-61
2023/01/13 03:00:23;;;;;;;7.15;6.10;;;;;;;7.14;100.00;98470.91;5054255;28;20272;-61
2023/01/13 03:02:48;;;;;;;7.57;6.78;;;;;;;7.25;100.00;98508.03;5054574;28;20260;-61
2023/01/13 03:05:16;;;;;;;8.18;5.85;;;;;;;7.23;100.00;98514.16;5054314;28;20173;-61
2023/01/13 03:07:54;;;;;;;7.07;5.47;;;;;;;7.24;100.00;98520.97;5054218;28;20185;-61
2023/01/13 03:10:25;;;;;;;6.10;5.50;;;;;;;7.20;100.00;98525.44;5054228;28;20169;-61
2023/01/13 03:12:58;;;;;;;7.88;6.07;;;;;;;7.01;100.00;98509.34;5053655;28;20173;-61
2023/01/13 03:15:39;;;;;;;5.55;4.68;;;;;;;6.81;100.00;98477.84;5054307;28;20174;-61
2023/01/13 03:18:41;;;;;;;6.18;5.57;;;;;;;7.22;100.00;98518.47;5054397;28;20154;-61
2023/01/13 03:21:20;;;;;;;6.90;5.72;;;;;;;7.14;100.00;98524.94;5053803;28;20193;-61
2023/01/13 03:23:54;;;;;;;6.20;5.53;;;;;;;7.10;100.00;98513.97;5054494;28;20242;-61
2023/01/13 03:26:32;;;;;;;5.88;4.97;;;;;;;6.84;100.00;98455.38;5054444;28;20165;-61
2023/01/13 03:29:20;;;;;;;6.15;5.55;;;;;;;7.17;100.00;98520.44;5054166;28;20227;-61
2023/01/13 03:31:58;;;;;;;6.35;5.75;;;;;;;7.13;100.00;98506.13;5054139;28;20687;-60
2023/01/13 03:34:38;;;;;;;7.78;5.65;;;;;;;7.04;100.00;98473.16;5053698;28;20237;-61
2023/01/13 03:37:07;;;;;;;9.18;5.57;;;;;;;7.38;100.00;98529.63;5053692;28;20165;-61
2023/01/13 03:39:37;;;;;;;9.70;5.47;;;;;;;7.00;100.00;98474.22;5054041;28;20516;-61
2023/01/13 03:42:22;;;;;;;7.75;6.03;;;;;;;7.04;100.00;98478.28;5053845;28;20166;-61
2023/01/13 03:44:59;;;;;;;8.77;5.75;;;;;;;6.91;100.00;98459.28;5054101;28;20244;-60
2023/01/13 03:47:40;;;;;;;6.22;5.63;;;;;;;7.16;100.00;98531.66;5053458;28;20170;-61
2023/01/13 03:50:19;;;;;;;7.90;5.72;;;;;;;6.54;100.00;98431.25;5053979;28;20398;-61
2023/01/13 03:52:54;;;;;;;10.32;5.75;;;;;;;6.86;100.00;98481.00;5053919;28;20166;-61
2023/01/13 03:55:27;;;;;;;6.57;5.88;;;;;;;7.01;100.00;98493.91;5053857;28;20165;-61
2023/01/13 03:58:05;;;;;;;8.27;6.35;;;;;;;7.28;100.00;98531.00;5053534;28;20165;-61
2023/01/13 04:00:38;;;;;;;7.78;6.30;;;;;;;6.96;100.00;98469.31;5051207;28;20220;-61
2023/01/13 04:03:08;;;;;;;11.27;6.18;;;;;;;6.98;100.00;98481.19;5051402;28;20585;-61
2023/01/13 04:05:39;;;;;;;6.47;5.88;;;;;;;7.24;100.00;98537.25;5051258;28;20224;-61
2023/01/13 04:08:15;;;;;;;6.80;5.70;;;;;;;7.24;100.00;98539.81;5051627;28;20518;-61
2023/01/13 04:10:56;;;;;;;5.78;5.07;;;;;;;7.24;100.00;98539.81;5051278;28;20174;-61
2023/01/13 04:13:26;;;;;;;9.05;6.07;;;;;;;7.13;100.00;98518.97;5051009;28;20256;-61
2023/01/13 04:15:51;;;;;;;8.90;6.25;;;;;;;7.31;100.00;98538.59;5050566;28;20184;-60
2023/01/13 04:18:29;;;;;;;8.35;6.55;;;;;;;7.03;100.00;98494.63;5050554;28;20181;-61
2023/01/13 04:20:59;;;;;;;10.07;6.65;;;;;;;7.33;100.00;98544.47;5050449;28;20699;-61
2023/01/13 04:23:26;;;;;;;10.82;6.38;;;;;;;7.35;100.00;98534.91;5050179;28;20589;-61
2023/01/13 04:25:52;;;;;;;9.15;6.75;;;;;;;7.40;100.00;98553.50;5050588;28;20193;-61
2023/01/13 04:28:19;;;;;;;14.15;7.32;;;;;;;7.13;100.00;98498.41;5050388;28;20184;-61
2023/01/13 04:30:45;;;;;;;8.13;6.70;;;;;;;7.13;100.00;98503.53;5050354;28;20282;-61
2023/01/13 04:33:11;;;;;;;8.40;6.30;;;;;;;7.42;100.00;98550.88;5050929;28;20181;-61
2023/01/13 04:35:37;;;;;;;7.03;6.30;;;;;;;7.20;100.00;98506.59;5050284;28;20209;-61
2023/01/13 04:38:04;;;;;;;8.75;6.05;;;;;;;7.10;100.00;98511.41;5051406;28;20308;-61
2023/01/13 04:40:30;;;;;;;9.02;5.90;;;;;;;7.19;100.00;98536.66;5052733;28;20197;-61
2023/01/13 04:42:55;;;;;;;6.95;5.57;;;;;;;7.30;100.00;98549.78;5052514;28;20624;-61
2023/01/13 04:45:21;;;;;;;12.40;6.78;;;;;;;6.74;100.00;98473.91;5052472;28;20315;-61
2023/01/13 04:47:47;;;;;;;11.98;7.07;;;;;;;7.13;100.00;98544.72;5052748;28;20332;-61
2023/01/13 04:50:13;;;;;;;10.13;7.07;;;;;;;7.30;100.00;98572.94;5052737;28;20188;-61
2023/01/13 04:52:39;;;;;;;8.02;6.82;;;;;;;6.98;100.00;98511.22;5052684;28;20173;-61
2023/01/13 04:55:05;;;;;;;8.30;6.70;;;;;;;7.22;100.00;98569.13;5053168;28;20177;-61
2023/01/13 04:57:33;;;;;;;10.85;6.78;;;;;;;6.95;100.00;98532.81;5052306;28;20177;-61
2023/01/13 04:59:59;;;;;;;9.02;6.50;;;;;;;7.10;100.00;98562.06;5052177;28;20198;-61
2023/01/13 05:02:24;;;;;;;10.70;7.00;;;;;;;7.10;100.00;98554.31;5052644;28;20223;-61
2023/01/13 05:04:50;;;;;;;9.27;6.65;;;;;;;6.83;100.00;98532.59;5052008;28;20169;-61
2023/01/13 05:07:16;;;;;;;11.55;7.22;;;;;;;6.94;100.00;98576.59;5052247;28;20727;-61
2023/01/13 05:09:41;;;;;;;10.95;7.43;;;;;;;6.55;100.00;98524.63;5049933;28;20197;-61
2023/01/13 05:17:37;;;;;;;11.15;6.95;;;;;;;6.82;100.00;98554.09;5050709;28;20200;-61
2023/01/13 05:20:04;;;;;;;10.88;7.45;;;;;;;6.93;100.00;98582.66;5049890;28;20680;-61
2023/01/13 05:25:23;;;;;;;8.48;6.65;;;;;;;6.95;100.00;98594.53;5050835;28;20197;-61
2023/01/13 05:27:53;;;;;;;10.18;6.97;;;;;;;6.86;100.00;98581.28;5049733;28;20173;-61
2023/01/13 05:30:21;;;;;;;10.35;7.63;;;;;;;6.70;100.00;98545.25;5049828;28;20569;-61
2023/01/13 05:32:46;;;;;;;7.93;6.50;;;;;;;7.01;100.00;98590.81;5049472;28;20240;-61
2023/01/13 05:35:12;;;;;;;8.80;6.60;;;;;;;7.01;100.00;98590.81;5051042;28;20193;-61
2023/01/13 05:37:38;;;;;;;8.20;6.78;;;;;;;6.78;100.00;98550.00;5053567;28;20173;-61
2023/01/13 05:45:45;;;;;;;8.90;5.63;;;;;;;6.99;100.00;98608.88;5056060;28;20169;-61
2023/01/13 05:48:10;;;;;;;6.88;6.18;;;;;;;6.69;100.00;98543.59;5055672;28;20174;-61
2023/01/13 05:50:36;;;;;;;11.38;6.75;;;;;;;6.80;100.00;98559.31;5055671;28;20182;-61
2023/01/13 05:53:01;;;;;;;11.57;7.30;;;;;;;6.98;100.00;98594.38;5056222;28;20588;-61
2023/01/13 05:55:26;;;;;;;10.82;8.10;;;;;;;6.86;100.00;98592.41;5055552;28;20235;-61
2023/01/13 05:57:52;;;;;;;10.48;8.27;;;;;;;6.61;100.00;98558.56;5055836;28;20169;-61
2023/01/13 06:00:18;;;;;;;10.43;8.15;;;;;;;6.55;100.00;98547.75;5055453;28;20757;-61
2023/01/13 06:02:43;;;;;;;10.18;7.28;;;;;;;6.98;100.00;98602.09;5056018;28;20231;-61
2023/01/13 06:05:09;;;;;;;9.80;7.15;;;;;;;6.54;100.00;98528.94;5055456;28;20549;-61
2023/01/13 06:07:34;;;;;;;9.10;7.50;;;;;;;7.13;100.00;98609.03;5055398;28;20162;-61
2023/01/13 06:09:59;;;;;;;8.80;7.05;;;;;;;6.97;100.00;98586.72;5055566;28;20247;-61
2023/01/13 06:12:25;;;;;;;10.27;6.95;;;;;;;7.07;100.00;98622.22;5033381;28;20651;-60
2023/01/13 06:14:50;;;;;;;10.88;7.43;;;;;;;6.78;100.00;98584.28;5033469;28;20187;-61
2023/01/13 06:17:15;;;;;;;9.43;7.13;;;;;;;6.87;100.00;98619.78;5033103;28;20774;-61
2023/01/13 06:19:41;;;;;;;9.85;7.32;;;;;;;7.05;100.00;98628.34;5032755;28;20194;-61
2023/01/13 06:22:14;;;;;;;10.15;7.90;;;;;;;6.94;100.00;98592.84;5032987;28;20189;-61
2023/01/13 06:24:40;;;;;;;10.52;8.57;;;;;;;6.86;100.00;98566.69;5033115;28;20177;-61
2023/01/13 06:27:07;;;;;;;10.95;7.93;;;;;;;7.28;100.00;98636.53;5032812;28;20628;-61
2023/01/13 06:29:32;;;;;;;12.93;8.80;;;;;;;7.27;100.00;98634.88;5033163;28;20182;-61
2023/01/13 06:32:02;;;;;;;13.82;8.75;;;;;;;6.93;100.00;98583.47;5032470;28;20207;-61
2023/01/13 06:34:28;;;;;;;12.38;8.23;;;;;;;7.28;100.00;98636.53;5032897;28;20170;-61
2023/01/13 06:36:54;;;;;;;11.20;7.60;;;;;;;7.02;100.00;98588.16;5032538;28;20181;-61
2023/01/13 06:39:23;;;;;;;12.13;9.15;;;;;;;7.02;100.00;98595.88;5032483;28;20637;-61
2023/01/13 06:44:35;;;;;;;12.10;8.98;;;;;;;7.20;100.00;98637.81;5054652;28;20247;-61
2023/01/13 06:47:01;;;;;;;9.38;8.20;;;;;;;7.01;100.00;98632.81;5053689;28;20197;-61
2023/01/13 06:49:26;;;;;;;13.60;7.97;;;;;;;6.87;100.00;98606.13;5054605;28;20173;-61
2023/01/13 06:51:52;;;;;;;9.80;7.70;;;;;;;6.92;100.00;98586.13;5054561;28;20307;-61
2023/01/13 06:54:17;;;;;;;9.90;8.15;;;;;;;6.88;100.00;98582.88;5054494;28;20269;-61
2023/01/13 06:56:42;;;;;;;10.23;7.38;;;;;;;6.97;100.00;98600.44;5052630;28;20667;-61
2023/01/13 06:59:08;;;;;;;8.88;7.35;;;;;;;7.25;100.00;98651.28;5054692;28;20166;-61
2023/01/13 07:01:33;;;;;;;10.02;7.95;;;;;;;7.27;100.00;98655.44;5054532;28;20194;-61
2023/01/13 07:03:59;;;;;;;13.65;10.23;;;;;;;7.29;100.00;98640.75;5054243;28;20572;-61
2023/01/13 07:06:24;;;;;;;18.55;10.55;;;;;;;7.37;100.00;98656.66;5054478;28;20204;-61
2023/01/13 07:08:49;;;;;;;13.90;10.25;;;;;;;7.17;100.00;98602.78;5054159;28;20517;-61
2023/01/13 07:11:15;;;;;;;12.63;9.88;;;;;;;7.15;100.00;98604.63;5054711;28;20268;-61
2023/01/13 07:16:26;;;;;;;16.23;10.00;;;;;;;7.55;100.00;98670.28;5054383;28;20163;-61
2023/01/13 07:18:53;;;;;;;16.65;10.75;;;;;;;7.58;100.00;98665.81;5054800;28;20248;-61
2023/01/13 07:21:19;;;;;;;20.50;12.15;;;;;;;7.41;100.00;98622.09;5054467;28;20702;-61
2023/01/13 07:23:46;;;;;;;30.33;14.50;;;;;;;7.76;100.00;98675.13;5053929;28;20611;-61
2023/01/13 07:26:12;;;;;;;24.95;15.82;;;;;;;7.73;100.00;98672.75;5053913;28;20174;-61
2023/01/13 07:28:38;;;;;;;28.45;16.77;;;;;;;7.57;100.00;98648.72;5054327;28;20212;-61
2023/01/13 07:31:05;;;;;;;22.42;14.38;;;;;;;7.69;100.00;98675.56;5053931;28;20615;-60
2023/01/13 07:33:32;;;;;;;16.52;11.90;;;;;;;7.61;100.00;98665.66;5053568;28;20225;-60
2023/01/13 07:36:02;;;;;;;19.40;12.48;;;;;;;7.41;100.00;98616.94;5053622;28;20181;-60
2023/01/13 07:38:29;;;;;;;21.23;12.27;;;;;;;7.44;100.00;98619.38;5054385;28;20210;-60
2023/01/13 07:40:54;;;;;;;20.83;11.57;;;;;;;7.81;100.00;98673.16;5053786;28;20284;-60
2023/01/13 07:43:31;;;;;;;24.85;13.90;;;;;;;7.78;100.00;98673.34;5053569;28;20296;-60
2023/01/13 07:45:58;;;;;;;21.13;12.88;;;;;;;7.74;100.00;98664.09;5053571;28;20169;-60
2023/01/13 07:48:24;;;;;;;23.55;13.35;;;;;;;7.77;100.00;98666.53;5053454;28;20174;-61
2023/01/13 07:50:49;;;;;;;31.73;13.60;;;;;;;7.54;100.00;98625.72;5053936;28;20182;-61
2023/01/13 07:53:15;;;;;;;17.20;10.15;;;;;;;7.71;100.00;98655.72;5053341;28;20598;-60
2023/01/13 07:55:44;;;;;;;13.98;9.20;;;;;;;7.97;100.00;98676.59;5053355;28;20186;-60
2023/01/13 07:58:10;;;;;;;16.10;8.88;;;;;;;8.01;100.00;98675.50;5052837;28;20268;-61
2023/01/13 08:00:37;;;;;;;10.30;7.40;;;;;;;7.98;100.00;98673.09;5053410;28;20288;-61
2023/01/13 08:03:03;;;;;;;13.48;8.73;;;;;;;7.95;100.00;98668.13;5053716;28;20182;-60
2023/01/13 08:05:29;;;;;;;16.05;10.23;;;;;;;7.74;100.00;98628.03;5053933;28;20235;-60
2023/01/13 08:07:54;;;;;;;13.43;8.27;;;;;;;7.57;100.00;98635.03;5053070;28;20185;-61
2023/01/13 08:10:19;;;;;;;16.02;7.40;;;;;;;7.53;100.00;98630.94;5052716;28;20185;-61
2023/01/13 08:15:31;;;;;;;13.13;8.82;;;;;;;7.87;100.00;98682.31;5053004;28;20193;-61
2023/01/13 08:17:57;;;;;;;10.93;8.18;;;;;;;7.72;100.00;98673.66;5052910;28;20174;-61
2023/01/13 08:20:22;;;;;;;15.23;9.68;;;;;;;7.77;100.00;98687.13;5053338;28;20206;-61
2023/01/13 08:22:47;;;;;;;13.95;8.68;;;;;;;7.78;100.00;98688.78;5052860;28;20695;-60
2023/01/13 08:25:13;;;;;;;13.57;8.80;;;;;;;7.86;100.00;98701.28;5053609;28;20177;-60
2023/01/13 08:27:38;;;;;;;17.73;9.52;;;;;;;7.93;100.00;98687.97;5052529;28;20178;-61
2023/01/13 08:30:04;;;;;;;15.40;8.18;;;;;;;7.98;100.00;98691.13;5052773;28;20532;-61
2023/01/13 08:32:30;;;;;;;17.83;9.02;;;;;;;8.09;100.00;98699.09;5052217;28;20217;-60
2023/01/13 08:34:55;;;;;;;16.77;9.52;;;;;;;7.74;100.00;98635.78;5053438;28;20220;-60
2023/01/13 08:37:21;;;;;;;16.52;10.70;;;;;;;7.88;100.00;98656.47;5053144;28;20272;-60
2023/01/13 08:39:46;;;;;;;21.33;10.88;;;;;;;7.86;100.00;98653.13;5052485;28;20586;-60
2023/01/13 08:42:12;;;;;;;17.65;8.02;;;;;;;7.86;100.00;98645.41;5052817;28;20174;-60
2023/01/13 08:44:37;;;;;;;15.23;9.07;;;;;;;8.22;100.00;98705.28;5052449;28;20713;-60
2023/01/13 08:47:03;;;;;;;16.85;8.75;;;;;;;8.12;100.00;98708.44;5051953;28;20178;-60
2023/01/13 08:49:28;;;;;;;11.95;8.48;;;;;;;7.82;100.00;98643.91;5052416;28;20170;-60
2023/01/13 08:51:54;;;;;;;17.30;8.98;;;;;;;8.33;100.00;98718.44;5053250;28;20195;-60
2023/01/13 08:54:19;;;;;;;15.18;9.70;;;;;;;8.33;100.00;98715.03;5052928;28;20176;-60
2023/01/13 08:56:45;;;;;;;11.88;7.78;;;;;;;8.44;100.00;98710.94;5052691;28;20502;-60
2023/01/13 08:59:12;;;;;;;13.13;8.00;;;;;;;8.48;100.00;98696.13;5052326;28;20169;-60
2023/01/13 09:01:38;;;;;;;15.82;9.85;;;;;;;8.33;100.00;98661.72;5052199;28;20651;-60
2023/01/13 09:04:04;;;;;;;13.32;8.13;;;;;;;8.59;100.00;98694.63;5052808;28;20219;-60
2023/01/13 09:06:30;;;;;;;9.45;7.13;;;;;;;8.60;100.00;98695.44;5052286;28;20589;-60
2023/01/13 09:08:55;;;;;;;10.05;6.63;;;;;;;8.28;100.00;98629.38;5052290;28;20200;-60
2023/01/13 09:14:16;;;;;;;10.35;5.32;;;;;;;8.50;100.00;98647.91;5056975;28;20161;-60
2023/01/13 09:16:42;;;;;;;9.93;6.85;;;;;;;8.81;100.00;98687.34;5056258;28;20209;-60
2023/01/13 09:19:07;;;;;;;11.88;6.43;;;;;;;8.93;100.00;98702.13;5055064;28;20256;-61
2023/01/13 09:21:32;;;;;;;10.48;6.35;;;;;;;8.86;100.00;98675.00;5056124;28;20198;-60
2023/01/13 09:23:58;;;;;;;9.75;6.60;;;;;;;9.03;100.00;98685.16;5056198;28;20257;-60
2023/01/13 09:26:23;;;;;;;14.52;7.05;;;;;;;9.13;100.00;98688.88;5055245;28;20616;-61
2023/01/13 09:28:49;;;;;;;10.00;5.95;;;;;;;9.00;100.00;98653.56;5056347;28;20265;-60
2023/01/13 09:31:14;;;;;;;6.88;5.72;;;;;;;9.04;100.00;98661.03;5056064;28;20575;-61
2023/01/13 09:36:23;;;;;;;8.48;5.63;;;;;;;9.00;100.00;98641.50;5056358;28;20622;-61
2023/01/13 09:38:49;;;;;;;9.80;6.47;;;;;;;8.96;100.00;98634.03;5055665;28;20252;-61
2023/01/13 09:44:41;;;;;;;8.38;5.65;;;;;;;9.27;100.00;98691.47;5055911;28;20220;-61
2023/01/13 09:47:16;;;;;;;9.95;6.30;;;;;;;8.99;100.00;98629.50;5056395;28;20170;-61
2023/01/13 09:49:42;;;;;;;13.93;8.25;;;;;;;9.21;100.00;98678.94;5056311;28;20198;-61
2023/01/13 09:52:23;;;;;;;8.95;6.28;;;;;;;9.41;100.00;98695.84;5055720;28;20174;-61
2023/01/13 09:55:13;;;;;;;7.35;5.80;;;;;;;9.48;100.00;98686.78;5056011;28;20206;-61
2023/01/13 09:57:39;;;;;;;103.55;42.65;;;;;;;9.18;100.00;98632.66;5056369;28;20173;-61
2023/01/13 10:00:24;;;;;;;42.33;19.60;;;;;;;9.45;100.00;98682.69;5055470;28;20197;-61
2023/01/13 10:03:16;;;;;;;29.65;13.82;;;;;;;9.36;100.00;98682.38;5055160;28;20181;-60
2023/01/13 10:05:55;;;;;;;22.25;11.70;;;;;;;9.33;100.00;98678.22;5056036;28;20265;-61
2023/01/13 10:08:27;;;;;;;7.72;6.93;;;;;;;9.13;100.00;98624.34;5055400;28;20196;-60
2023/01/13 10:13:54;;;;;;;6.72;6.00;;;;;;;9.19;100.00;98598.19;5055368;28;20166;-61
2023/01/13 10:16:26;;;;;;;7.75;6.55;;;;;;;9.57;100.00;98664.66;5055773;28;20253;-61
2023/01/13 10:19:16;;;;;;;13.07;6.93;;;;;;;9.54;100.00;98656.28;5055500;28;20325;-61
2023/01/13 10:22:15;;;;;;;10.68;7.57;;;;;;;9.61;100.00;98657.56;5054305;28;20197;-61
2023/01/13 10:25:05;;;;;;;12.02;7.75;;;;;;;9.57;100.00;98641.41;5055622;28;20604;-60
2023/01/13 10:27:36;;;;;;;11.13;8.80;;;;;;;9.60;100.00;98635.25;5055048;28;20223;-61
2023/01/13 10:30:16;;;;;;;25.27;11.05;;;;;;;9.68;100.00;98645.94;5055550;28;20253;-60
2023/01/13 10:32:45;;;;;;;45.08;19.98;;;;;;;9.34;100.00;98592.09;5055532;28;20197;-61
2023/01/13 10:35:10;;;;;;;140.35;48.22;;;;;;;9.44;100.00;98629.34;5054512;28;20243;-61
2023/01/13 10:37:35;;;;;;;69.10;25.27;;;;;;;9.04;100.00;98570.69;5054533;28;20181;-60
2023/01/13 10:40:02;;;;;;;23.58;16.58;;;;;;;9.15;100.00;98590.72;5055043;28;20262;-60
2023/01/13 10:42:28;;;;;;;15.50;13.65;;;;;;;9.38;100.00;98623.72;5055260;28;20535;-60
2023/01/13 10:44:55;;;;;;;15.35;10.30;;;;;;;8.97;100.00;98576.34;5054670;28;20226;-60
2023/01/13 10:47:26;;;;;;;45.10;19.85;;;;;;;9.29;100.00;98614.78;5054911;28;20304;-60
2023/01/13 10:49:58;;;;;;;122.45;47.55;;;;;;;9.30;100.00;98618.19;5054598;28;20162;-61
2023/01/13 10:52:26;;;;;;;80.30;30.10;;;;;;;8.82;100.00;98570.31;5055358;28;20173;-60
2023/01/13 10:54:53;;;;;;;45.65;18.13;;;;;;;8.93;100.00;98611.81;5055045;28;20177;-60
2023/01/13 10:57:21;;;;;;;44.47;23.65;;;;;;;8.83;100.00;98584.88;5054450;28;20276;-61
2023/01/13 10:59:47;;;;;;;17.08;10.00;;;;;;;8.82;100.00;98557.44;5054340;28;20601;-61
2023/01/13 11:02:23;;;;;;;12.48;8.85;;;;;;;9.24;100.00;98609.06;5054870;28;20272;-61
2023/01/13 11:04:52;;;;;;;17.67;9.40;;;;;;;9.33;100.00;98607.69;5054607;28;20188;-61
2023/01/13 11:07:27;;;;;;;14.38;9.32;;;;;;;9.05;100.00;98554.31;5054294;28;20169;-61
2023/01/13 11:10:04;;;;;;;13.27;7.80;;;;;;;9.42;100.00;98605.38;5054807;28;20166;-61
2023/01/13 11:12:33;;;;;;;12.02;7.35;;;;;;;9.13;100.00;98536.59;5054716;28;20193;-61
2023/01/13 11:15:07;;;;;;;11.70;8.15;;;;;;;9.11;100.00;98528.13;5051881;28;20189;-61
2023/01/13 11:17:45;;;;;;;11.45;7.95;;;;;;;9.50;100.00;98595.38;5051281;28;20188;-60
2023/01/13 11:20:10;;;;;;;9.88;7.88;;;;;;;9.56;100.00;98599.38;5052410;28;20216;-60
2023/01/13 11:22:42;;;;;;;30.17;14.65;;;;;;;9.56;100.00;98602.75;5051618;28;20182;-61
2023/01/13 11:25:18;;;;;;;53.72;22.58;;;;;;;9.48;100.00;98604.16;5051855;28;20185;-61
2023/01/13 11:27:54;;;;;;;91.40;33.95;;;;;;;8.59;100.00;98503.78;5051562;28;20655;-60
2023/01/13 11:30:46;;;;;;;129.57;47.70;;;;;;;8.79;100.00;98536.94;5052300;28;20194;-60
2023/01/13 11:33:14;;;;;;;21.70;10.65;;;;;;;9.14;100.00;98597.63;5051154;28;20193;-60
2023/01/13 11:36:00;;;;;;;14.38;9.35;;;;;;;9.25;100.00;98594.38;5051506;28;20186;-61
2023/01/13 11:38:48;;;;;;;23.85;10.70;;;;;;;9.38;100.00;98603.06;5052198;28;20260;-60
2023/01/13 11:41:19;;;;;;;30.20;15.85;;;;;;;9.26;100.00;98594.28;5051745;28;20209;-61
2023/01/13 11:44:08;;;;;;;24.10;12.15;;;;;;;9.20;100.00;98568.84;5051258;28;20170;-61
2023/01/13 11:46:34;;;;;;;40.50;19.20;;;;;;;8.96;100.00;98529.03;5052862;28;20247;-61
2023/01/13 11:49:01;;;;;;;75.15;31.58;;;;;;;8.63;100.00;98525.88;5053481;28;20174;-61
2023/01/13 11:51:38;;;;;;;48.35;23.40;;;;;;;8.99;100.00;98580.47;5053376;28;20542;-61
2023/01/13 11:54:13;;;;;;;26.83;15.35;;;;;;;9.22;100.00;98585.09;5071363;28;20204;-59
2023/01/13 11:57:07;;;;;;;17.77;12.35;;;;;;;9.27;100.00;98588.22;5071192;28;20168;-61
2023/01/13 11:59:53;;;;;;;45.17;21.90;;;;;;;9.30;100.00;98600.94;5070854;28;20173;-60
2023/01/13 12:02:47;;;;;;;32.70;17.10;;;;;;;9.39;100.00;98592.63;5071326;28;20226;-61
2023/01/13 12:05:34;;;;;;;18.25;12.10;;;;;;;9.45;100.00;98589.69;5070985;28;20234;-60
2023/01/13 12:08:03;;;;;;;22.85;13.20;;;;;;;9.47;100.00;98582.69;5070656;28;20671;-60
2023/01/13 12:11:22;;;;;;;23.23;12.90;;;;;;;9.42;100.00;98579.53;5070678;28;20577;-60
2023/01/13 12:14:31;;;;;;;27.20;15.20;;;;;;;9.51;100.00;98584.16;4991542;28;20187;-60
2023/01/13 12:16:58;;;;;;;18.88;11.60;;;;;;;9.52;100.00;98585.81;4953056;29;20683;-60
2023/01/13 12:19:29;;;;;;;18.58;11.35;;;;;;;9.51;100.00;98584.16;4952939;29;20193;-60
2023/01/13 12:22:26;;;;;;;22.75;11.48;;;;;;;9.60;100.00;98583.56;4952608;29;20217;-60
2023/01/13 12:25:13;;;;;;;26.40;15.52;;;;;;;9.20;100.00;98535.28;4952920;29;20208;-60